Aviation Digital Data Service (ADDS)

Output produced by METARs form (1219 UTC 23 March 2017)
found at http://aviationweather.gov/adds/metars/
 
METAR text: KONP 231215Z AUTO 13003KT 10SM SCT038 04/03 A3013 RMK AO2
Conditions at: KONP (NEWPORT , OR, US) observed 1215 UTC 23 March 2017
Temperature: 4.0°C (39°F)
Dewpoint: 3.0°C (37°F) [RH = 93%]
Pressure (altimeter): 30.13 inches Hg (1020.4 mb)
Winds: from the SE (130 degrees) at 3 MPH (3 knots; 1.6 m/s)
Visibility: 10 or more miles (16+ km)
Ceiling: at least 12,000 feet AGL
Clouds: scattered clouds at 3800 feet AGL
Weather: automated observation with no human augmentation;
there may or may not be significant weather present at this time

METAR text: KONP 231155Z AUTO 11006KT 10SM SCT038 SCT044 05/03 A3013 RMK AO2
Conditions at: KONP (NEWPORT , OR, US) observed 1155 UTC 23 March 2017
Temperature: 5.0°C (41°F)
Dewpoint: 3.0°C (37°F) [RH = 87%]
Pressure (altimeter): 30.13 inches Hg (1020.4 mb)
Winds: from the ESE (110 degrees) at 7 MPH (6 knots; 3.1 m/s)
Visibility: 10 or more miles (16+ km)
Ceiling: at least 12,000 feet AGL
Clouds: scattered clouds at 3800 feet AGL
scattered clouds at 4400 feet AGL
Weather: automated observation with no human augmentation;
there may or may not be significant weather present at this time

METAR text: KONP 231135Z AUTO 12005KT 10SM SCT044 05/03 A3013 RMK AO2
Conditions at: KONP (NEWPORT , OR, US) observed 1135 UTC 23 March 2017
Temperature: 5.0°C (41°F)
Dewpoint: 3.0°C (37°F) [RH = 87%]
Pressure (altimeter): 30.13 inches Hg (1020.4 mb)
Winds: from the ESE (120 degrees) at 6 MPH (5 knots; 2.6 m/s)
Visibility: 10 or more miles (16+ km)
Ceiling: at least 12,000 feet AGL
Clouds: scattered clouds at 4400 feet AGL
Weather: automated observation with no human augmentation;
there may or may not be significant weather present at this time

METAR text: KONP 231115Z AUTO 11005KT 10SM SCT046 05/03 A3013 RMK AO2
Conditions at: KONP (NEWPORT , OR, US) observed 1115 UTC 23 March 2017
Temperature: 5.0°C (41°F)
Dewpoint: 3.0°C (37°F) [RH = 87%]
Pressure (altimeter): 30.13 inches Hg (1020.4 mb)
Winds: from the ESE (110 degrees) at 6 MPH (5 knots; 2.6 m/s)
Visibility: 10 or more miles (16+ km)
Ceiling: at least 12,000 feet AGL
Clouds: scattered clouds at 4600 feet AGL
Weather: automated observation with no human augmentation;
there may or may not be significant weather present at this time

METAR text: KONP 231055Z AUTO 13005KT 10SM SCT021 BKN046 05/03 A3013 RMK AO2
Conditions at: KONP (NEWPORT , OR, US) observed 1055 UTC 23 March 2017
Temperature: 5.0°C (41°F)
Dewpoint: 3.0°C (37°F) [RH = 87%]
Pressure (altimeter): 30.13 inches Hg (1020.4 mb)
Winds: from the SE (130 degrees) at 6 MPH (5 knots; 2.6 m/s)
Visibility: 10 or more miles (16+ km)
Ceiling: 4600 feet AGL
Clouds: scattered clouds at 2100 feet AGL
broken clouds at 4600 feet AGL
Weather: automated observation with no human augmentation;
there may or may not be significant weather present at this time

METAR text: KONP 231035Z AUTO 13004KT 10SM SCT021 BKN046 05/03 A3014 RMK AO2
Conditions at: KONP (NEWPORT , OR, US) observed 1035 UTC 23 March 2017
Temperature: 5.0°C (41°F)
Dewpoint: 3.0°C (37°F) [RH = 87%]
Pressure (altimeter): 30.14 inches Hg (1020.7 mb)
Winds: from the SE (130 degrees) at 5 MPH (4 knots; 2.1 m/s)
Visibility: 10 or more miles (16+ km)
Ceiling: 4600 feet AGL
Clouds: scattered clouds at 2100 feet AGL
broken clouds at 4600 feet AGL
Weather: automated observation with no human augmentation;
there may or may not be significant weather present at this time

Forecast for: KONP (NEWPORT , OR, US)
Text: KONP 231138Z 2312/2412 13005KT P6SM -SHRA FEW030 OVC050
Forecast period: 1200 to 1700 UTC 23 March 2017
Forecast type: FROM: standard forecast or significant change
Winds: from the SE (130 degrees) at 6 MPH (5 knots; 2.6 m/s)
Visibility: 6 or more miles (10+ km)
Ceiling: 5000 feet AGL
Clouds: few clouds at 3000 feet AGL
overcast cloud deck at 5000 feet AGL
Weather: -SHRA  (light rain showers)
Text: FM231700 15010KT P6SM FEW030 SCT050
Forecast period: 1700 to 2100 UTC 23 March 2017
Forecast type: FROM: standard forecast or significant change
Winds: from the SSE (150 degrees) at 12 MPH (10 knots; 5.2 m/s)
Visibility: 6 or more miles (10+ km)
Clouds: few clouds at 3000 feet AGL
scattered clouds at 5000 feet AGL
Weather: no significant weather forecast for this period
Text: FM232100 17015G25KT 6SM -RA BR SCT030 OVC050
Forecast period: 2100 UTC 23 March 2017 to 0100 UTC 24 March 2017
Forecast type: FROM: standard forecast or significant change
Winds: from the S (170 degrees) at 17 MPH (15 knots; 7.8 m/s)
gusting to 29 MPH (25 knots; 13.0 m/s)
Visibility: 6 miles (10 km)
Ceiling: 5000 feet AGL
Clouds: scattered clouds at 3000 feet AGL
overcast cloud deck at 5000 feet AGL
Weather: -RA BR  (light rain, mist)
Text: FM240100 18015G25KT 5SM -RA BR BKN030 OVC050
Forecast period: 0100 to 0900 UTC 24 March 2017
Forecast type: FROM: standard forecast or significant change
Winds: from the S (180 degrees) at 17 MPH (15 knots; 7.8 m/s)
gusting to 29 MPH (25 knots; 13.0 m/s)
Visibility: 5 miles (8 km)
Ceiling: 3000 feet AGL
Clouds: broken clouds at 3000 feet AGL
overcast cloud deck at 5000 feet AGL
Weather: -RA BR  (light rain, mist)
Text: FM240900 19010KT P6SM -SHRA SCT025 BKN040
Forecast period: 0900 to 1200 UTC 24 March 2017
Forecast type: FROM: standard forecast or significant change
Winds: from the S (190 degrees) at 12 MPH (10 knots; 5.2 m/s)
Visibility: 6 or more miles (10+ km)
Ceiling: 4000 feet AGL
Clouds: scattered clouds at 2500 feet AGL
broken clouds at 4000 feet AGL
Weather: -SHRA  (light rain showers)